Time;durP1;ratioP1;P1;durP2;ratioP2;P2;SDS_P1;SDS_P2;PMS_P1;PMS_P2;Temp;Humidity;BMP_temperature;BMP_pressure;BME280_temperature;BME280_humidity;BME280_pressure;Samples;Min_cycle;Max_cycle;Signal;HPM_P1;HPM_P2
2022/04/02 00:02:11;;;;;;;2.20;2.10;;;5.30;99.90;;;;;;6062671;23;20743;-75
2022/04/02 00:04:39;;;;;;;2.50;2.40;;;5.30;99.90;;;;;;6062416;23;20174;-75
2022/04/02 00:07:07;;;;;;;2.65;2.55;;;5.40;99.90;;;;;;6064001;23;20218;-74
2022/04/02 00:09:34;;;;;;;2.58;2.47;;;5.40;99.90;;;;;;6063899;23;20230;-74
2022/04/02 00:12:02;;;;;;;2.90;2.80;;;5.50;99.90;;;;;;6063540;23;20206;-74
2022/04/02 00:14:29;;;;;;;2.58;2.47;;;5.60;99.90;;;;;;6062509;23;20170;-74
2022/04/02 00:16:56;;;;;;;2.88;2.78;;;5.60;99.90;;;;;;6063480;23;20233;-75
2022/04/02 00:19:23;;;;;;;2.60;2.50;;;5.60;99.90;;;;;;6064034;23;20221;-74
2022/04/02 00:21:52;;;;;;;2.92;2.83;;;5.50;99.90;;;;;;6062951;23;20607;-74
2022/04/02 00:24:19;;;;;;;2.67;2.58;;;5.50;99.90;;;;;;6063337;23;20174;-74
2022/04/02 00:26:46;;;;;;;2.58;2.47;;;5.50;99.90;;;;;;6063117;23;20210;-74
2022/04/02 00:29:13;;;;;;;2.58;2.47;;;5.60;99.90;;;;;;6063842;23;20541;-74
2022/04/02 00:31:40;;;;;;;2.90;2.80;;;5.60;99.90;;;;;;6063432;23;20206;-74
2022/04/02 00:34:08;;;;;;;2.97;2.88;;;5.60;99.90;;;;;;6063792;23;20265;-74
2022/04/02 00:36:37;;;;;;;2.55;2.45;;;5.60;99.90;;;;;;6062501;23;20717;-74
2022/04/02 00:39:07;;;;;;;2.40;2.30;;;5.60;99.90;;;;;;6063311;23;20178;-74
2022/04/02 00:41:34;;;;;;;2.33;2.22;;;5.70;99.90;;;;;;6063270;23;20273;-73
2022/04/02 00:44:09;;;;;;;2.38;2.28;;;5.80;99.90;;;;;;6063151;23;20178;-74
2022/04/02 00:46:38;;;;;;;2.42;2.33;;;5.80;99.90;;;;;;6063703;23;20320;-74
2022/04/02 00:49:06;;;;;;;2.50;2.40;;;5.80;99.90;;;;;;6062890;23;20182;-75
2022/04/02 00:51:34;;;;;;;2.10;2.00;;;5.80;99.90;;;;;;6062789;23;20687;-74
2022/04/02 00:54:02;;;;;;;2.17;2.08;;;5.80;99.90;;;;;;6064028;23;20261;-73
2022/04/02 00:56:31;;;;;;;2.40;2.30;;;5.80;99.90;;;;;;6062314;23;20753;-74
2022/04/02 00:58:58;;;;;;;1.95;1.85;;;5.80;99.90;;;;;;6064288;23;20178;-73
2022/04/02 01:01:25;;;;;;;2.20;2.10;;;5.80;99.90;;;;;;6061063;23;20271;-74
2022/04/02 01:03:53;;;;;;;2.50;2.40;;;5.80;99.90;;;;;;6064191;23;20595;-73
2022/04/02 01:06:21;;;;;;;2.00;1.90;;;5.80;99.90;;;;;;6063201;23;20211;-74
2022/04/02 01:08:48;;;;;;;2.30;2.20;;;5.70;99.90;;;;;;6063767;23;20540;-74
2022/04/02 01:11:15;;;;;;;2.42;2.33;;;5.70;99.90;;;;;;6062036;23;20232;-73
2022/04/02 01:13:44;;;;;;;2.63;2.42;;;5.70;99.90;;;;;;6061979;23;20221;-75
2022/04/02 01:16:11;;;;;;;2.33;2.22;;;5.70;99.90;;;;;;6064248;23;20269;-74
2022/04/02 01:18:38;;;;;;;2.20;2.10;;;5.70;99.90;;;;;;6065642;23;20250;-74
2022/04/02 01:21:05;;;;;;;2.22;2.13;;;5.80;99.90;;;;;;6063698;23;20214;-73
2022/04/02 01:23:33;;;;;;;2.30;2.20;;;5.80;99.90;;;;;;6064242;23;20181;-74
2022/04/02 01:26:01;;;;;;;1.95;1.85;;;5.90;99.90;;;;;;6063744;23;20220;-73
2022/04/02 01:28:33;;;;;;;2.70;2.60;;;5.90;99.90;;;;;;6065862;23;20244;-74
2022/04/02 01:31:03;;;;;;;2.95;2.85;;;5.90;99.90;;;;;;6065839;23;20269;-75
2022/04/02 01:33:30;;;;;;;2.50;2.40;;;5.80;99.90;;;;;;6066161;23;20711;-73
2022/04/02 01:36:01;;;;;;;2.38;2.28;;;5.80;99.90;;;;;;6067722;23;20222;-74
2022/04/02 01:38:29;;;;;;;2.28;2.17;;;5.80;99.90;;;;;;6067692;23;20552;-74
2022/04/02 01:40:58;;;;;;;2.60;2.50;;;5.70;99.90;;;;;;6064031;23;20229;-74
2022/04/02 01:43:25;;;;;;;2.55;2.45;;;5.60;99.90;;;;;;6061530;23;20182;-74
2022/04/02 01:45:56;;;;;;;2.38;2.28;;;5.60;99.90;;;;;;6060216;23;20210;-74
2022/04/02 01:48:23;;;;;;;2.47;2.38;;;5.60;99.90;;;;;;6060217;23;20182;-73
2022/04/02 01:50:51;;;;;;;2.83;2.63;;;5.60;99.90;;;;;;6062566;23;20202;-75
2022/04/02 01:53:18;;;;;;;2.90;2.70;;;5.60;99.90;;;;;;6062664;23;20178;-74
2022/04/02 01:55:45;;;;;;;2.88;2.78;;;5.50;99.90;;;;;;6062203;23;20270;-74
2022/04/02 01:58:14;;;;;;;2.90;2.80;;;5.50;99.90;;;;;;6063291;23;20242;-75
2022/04/02 02:00:42;;;;;;;2.75;2.60;;;5.50;99.90;;;;;;6060950;23;20210;-74
2022/04/02 02:03:09;;;;;;;2.70;2.60;;;5.50;99.90;;;;;;6062553;23;20182;-73
2022/04/02 02:05:36;;;;;;;2.60;2.50;;;5.60;99.90;;;;;;6061506;23;20776;-74
2022/04/02 02:08:04;;;;;;;2.72;2.63;;;5.60;99.90;;;;;;6064088;23;20234;-73
2022/04/02 02:10:32;;;;;;;2.40;2.30;;;5.60;99.90;;;;;;6064690;23;20178;-75
2022/04/02 02:13:00;;;;;;;2.70;2.60;;;5.60;99.90;;;;;;6064476;23;20183;-73
2022/04/02 02:15:28;;;;;;;2.45;2.35;;;5.60;99.90;;;;;;6062284;23;20174;-73
2022/04/02 02:17:55;;;;;;;2.75;2.65;;;5.60;99.90;;;;;;6014109;23;20199;-77
2022/04/02 02:20:23;;;;;;;2.80;2.70;;;5.60;99.90;;;;;;6006655;23;20211;-77
2022/04/02 02:22:50;;;;;;;2.60;2.50;;;5.60;99.90;;;;;;6034816;23;20248;-76
2022/04/02 02:25:19;;;;;;;2.65;2.50;;;5.50;99.90;;;;;;6034219;23;20230;-77
2022/04/02 02:27:47;;;;;;;2.50;2.40;;;5.50;99.90;;;;;;6064443;23;20234;-76
2022/04/02 02:30:16;;;;;;;2.92;2.83;;;5.40;99.90;;;;;;6064318;23;20589;-77
2022/04/02 02:32:45;;;;;;;2.90;2.80;;;5.30;99.90;;;;;;6063695;23;20225;-77
2022/04/02 02:38:08;;;;;;;2.65;2.55;;;5.30;99.90;;;;;;6063564;23;20257;-76
2022/04/02 02:40:35;;;;;;;2.65;2.55;;;5.30;99.90;;;;;;6064074;23;20237;-77
2022/04/02 02:43:03;;;;;;;2.25;2.15;;;5.30;99.90;;;;;;6064647;23;20254;-77
2022/04/02 02:45:31;;;;;;;2.20;2.10;;;5.30;99.90;;;;;;6065574;23;20230;-77
2022/04/02 02:48:00;;;;;;;2.85;2.75;;;5.30;99.90;;;;;;6064153;23;20210;-77
2022/04/02 02:50:27;;;;;;;2.88;2.78;;;5.20;99.90;;;;;;6065989;23;20179;-77
2022/04/02 02:52:55;;;;;;;3.85;3.65;;;5.20;99.90;;;;;;6063635;23;20210;-77
2022/04/02 02:55:22;;;;;;;3.67;3.40;;;5.20;99.90;;;;;;6065899;23;20178;-77
2022/04/02 02:57:50;;;;;;;3.60;3.40;;;5.10;99.90;;;;;;6063996;23;20754;-77
2022/04/02 03:00:19;;;;;;;3.40;3.20;;;5.10;99.90;;;;;;6064845;23;20210;-77
2022/04/02 03:02:46;;;;;;;3.50;3.30;;;5.20;99.90;;;;;;6064644;23;20536;-77
2022/04/02 03:05:16;;;;;;;3.20;3.10;;;5.20;99.90;;;;;;6066583;23;20226;-77
2022/04/02 03:07:48;;;;;;;3.03;2.83;;;5.30;99.90;;;;;;6062136;23;20729;-76
2022/04/02 03:10:17;;;;;;;2.90;2.80;;;5.30;99.90;;;;;;6064170;23;20238;-76
2022/04/02 03:12:44;;;;;;;3.60;3.40;;;5.40;99.90;;;;;;6064095;23;20210;-77
2022/04/02 03:15:12;;;;;;;2.78;2.67;;;5.40;99.90;;;;;;6065015;23;20178;-76
2022/04/02 03:17:40;;;;;;;2.50;2.40;;;5.40;99.90;;;;;;6064715;23;20293;-76
2022/04/02 03:20:09;;;;;;;2.95;2.85;;;5.50;99.90;;;;;;6064966;23;20540;-77
2022/04/02 03:22:39;;;;;;;3.58;3.38;;;5.50;99.90;;;;;;6063828;23;20216;-76
2022/04/02 03:25:08;;;;;;;3.30;3.10;;;5.50;99.90;;;;;;6060865;23;20186;-76
2022/04/02 03:27:35;;;;;;;2.75;2.65;;;5.50;99.90;;;;;;6060172;23;20703;-77
2022/04/02 03:30:04;;;;;;;2.85;2.75;;;5.50;99.90;;;;;;6060613;23;20185;-77
2022/04/02 03:32:31;;;;;;;2.85;2.75;;;5.60;99.90;;;;;;6063903;23;20206;-77
2022/04/02 03:34:58;;;;;;;3.05;2.95;;;5.60;99.90;;;;;;6065623;23;20182;-76
2022/04/02 03:37:26;;;;;;;3.25;3.08;;;5.60;99.90;;;;;;6065108;23;20237;-75
2022/04/02 03:39:54;;;;;;;3.00;2.80;;;5.60;99.90;;;;;;6063895;23;20438;-76
2022/04/02 03:42:21;;;;;;;2.70;2.60;;;5.60;99.90;;;;;;6062561;23;20218;-77
2022/04/02 03:44:48;;;;;;;2.45;2.35;;;5.60;99.90;;;;;;6064963;23;20628;-77
2022/04/02 03:47:15;;;;;;;3.08;2.88;;;5.60;99.90;;;;;;6065103;23;20210;-76
2022/04/02 03:49:44;;;;;;;2.33;2.22;;;5.60;99.90;;;;;;6065977;23;20178;-76
2022/04/02 03:52:12;;;;;;;3.13;3.00;;;5.50;99.90;;;;;;6064903;23;20669;-76
2022/04/02 03:54:40;;;;;;;2.88;2.78;;;5.40;99.90;;;;;;6066709;23;20950;-76
2022/04/02 03:57:10;;;;;;;3.03;2.92;;;5.40;99.90;;;;;;6066002;23;20268;-77
2022/04/02 03:59:38;;;;;;;3.17;2.97;;;5.50;99.90;;;;;;6065407;23;20234;-75
2022/04/02 04:02:05;;;;;;;2.88;2.55;;;5.50;99.90;;;;;;6068318;23;20738;-76
2022/04/02 04:04:32;;;;;;;2.42;2.33;;;5.50;99.90;;;;;;6069146;23;20192;-78
2022/04/02 04:07:00;;;;;;;3.03;2.85;;;5.50;99.90;;;;;;6069295;23;20266;-76
2022/04/02 04:09:27;;;;;;;2.95;2.75;;;5.50;99.90;;;;;;6068978;23;20222;-75
2022/04/02 04:11:55;;;;;;;2.85;2.72;;;5.50;99.90;;;;;;6067785;23;20262;-76
2022/04/02 04:14:24;;;;;;;2.65;2.55;;;5.50;99.90;;;;;;6069393;23;20261;-76
2022/04/02 04:16:52;;;;;;;2.70;2.60;;;5.50;99.90;;;;;;6068443;23;20584;-76
2022/04/02 04:19:20;;;;;;;2.20;2.10;;;5.50;99.90;;;;;;6069161;23;20178;-76
2022/04/02 04:21:48;;;;;;;2.38;2.28;;;5.50;99.90;;;;;;6066729;23;20214;-77
2022/04/02 04:24:15;;;;;;;2.60;2.40;;;5.50;99.90;;;;;;6068810;23;20185;-76
2022/04/02 04:26:42;;;;;;;2.72;2.55;;;5.50;99.90;;;;;;6064812;23;20281;-76
2022/04/02 04:29:10;;;;;;;2.72;2.63;;;5.50;99.90;;;;;;6062986;23;20178;-76
2022/04/02 04:31:38;;;;;;;2.55;2.45;;;5.50;99.90;;;;;;6062222;23;20209;-75
2022/04/02 04:34:06;;;;;;;2.40;2.30;;;5.50;99.90;;;;;;6061957;23;20268;-76
2022/04/02 04:36:34;;;;;;;2.78;2.58;;;5.60;99.90;;;;;;6062365;23;20225;-76
2022/04/02 04:39:01;;;;;;;2.85;2.75;;;5.60;99.90;;;;;;6065542;23;20797;-75
2022/04/02 04:41:28;;;;;;;2.60;2.50;;;5.50;99.90;;;;;;6063839;23;20603;-77
2022/04/02 04:43:55;;;;;;;2.67;2.58;;;5.60;99.90;;;;;;6063906;23;20316;-77
2022/04/02 04:46:22;;;;;;;2.40;2.30;;;5.50;99.90;;;;;;6062080;23;20262;-76
2022/04/02 04:48:50;;;;;;;2.38;2.28;;;5.60;99.90;;;;;;6063464;23;20182;-76
2022/04/02 04:51:18;;;;;;;2.22;2.13;;;5.60;99.90;;;;;;6062233;23;20264;-76
2022/04/02 04:53:46;;;;;;;2.50;2.40;;;5.60;99.90;;;;;;6062741;23;20256;-77
2022/04/02 04:56:13;;;;;;;2.13;2.03;;;5.60;99.90;;;;;;6061258;23;20870;-77
2022/04/02 04:58:40;;;;;;;2.38;2.28;;;5.60;99.90;;;;;;6065926;23;20556;-78
2022/04/02 05:01:08;;;;;;;2.15;2.05;;;5.60;99.90;;;;;;6065090;23;20285;-77
2022/04/02 05:03:35;;;;;;;2.30;2.20;;;5.60;99.90;;;;;;6064347;23;20175;-76
2022/04/02 05:06:05;;;;;;;2.10;2.00;;;5.60;99.90;;;;;;6063530;23;20647;-77
2022/04/02 05:08:33;;;;;;;2.47;2.38;;;5.50;99.90;;;;;;6062830;23;20265;-77
2022/04/02 05:11:01;;;;;;;2.78;2.67;;;5.50;99.90;;;;;;6063096;23;20170;-77
2022/04/02 05:13:28;;;;;;;2.63;2.53;;;5.50;99.90;;;;;;6061417;23;20214;-77
2022/04/02 05:15:55;;;;;;;2.50;2.40;;;5.60;99.90;;;;;;6061863;23;20209;-77
2022/04/02 05:18:22;;;;;;;2.50;2.40;;;5.60;99.90;;;;;;6061717;23;20210;-77
2022/04/02 05:20:49;;;;;;;2.35;2.25;;;5.60;99.90;;;;;;6063336;23;20226;-76
2022/04/02 05:23:18;;;;;;;2.03;1.92;;;5.60;99.90;;;;;;6063250;23;20309;-77
2022/04/02 05:25:45;;;;;;;2.60;2.50;;;5.60;99.90;;;;;;6062983;23;20235;-77
2022/04/02 05:28:12;;;;;;;2.85;2.65;;;5.60;99.90;;;;;;6062964;23;20217;-77
2022/04/02 05:30:40;;;;;;;2.88;2.75;;;5.50;99.90;;;;;;6062530;23;20238;-77
2022/04/02 05:33:07;;;;;;;2.42;2.33;;;5.40;99.90;;;;;;6062762;23;20202;-76
2022/04/02 05:35:34;;;;;;;2.55;2.45;;;5.40;99.90;;;;;;6063377;23;20521;-77
2022/04/02 05:38:01;;;;;;;2.30;2.20;;;5.40;99.90;;;;;;6063284;23;20210;-77
2022/04/02 05:40:29;;;;;;;2.30;2.20;;;5.40;99.90;;;;;;6064749;23;20643;-77
2022/04/02 05:42:57;;;;;;;1.90;1.80;;;5.40;99.90;;;;;;6063798;23;20210;-78
2022/04/02 05:45:24;;;;;;;2.33;2.22;;;5.50;99.90;;;;;;6064971;23;20185;-77
2022/04/02 05:47:53;;;;;;;2.17;2.08;;;5.50;99.90;;;;;;6065487;23;20237;-77
2022/04/02 05:50:23;;;;;;;2.10;2.00;;;5.50;99.90;;;;;;6066698;23;20178;-77
2022/04/02 05:52:51;;;;;;;2.25;2.15;;;5.50;99.90;;;;;;6065997;23;20563;-78
2022/04/02 05:55:18;;;;;;;2.40;2.17;;;5.50;99.90;;;;;;6065271;23;20185;-77
2022/04/02 05:57:48;;;;;;;2.55;2.40;;;5.50;99.90;;;;;;6066722;23;20385;-78
2022/04/02 06:00:17;;;;;;;2.33;2.22;;;5.40;99.90;;;;;;6070027;23;20178;-79
2022/04/02 06:02:45;;;;;;;2.47;2.38;;;5.40;99.90;;;;;;6068965;23;20233;-78
2022/04/02 06:05:15;;;;;;;2.28;2.17;;;5.50;99.90;;;;;;6069331;23;20189;-78
2022/04/02 06:07:43;;;;;;;2.25;2.15;;;5.60;99.90;;;;;;6068880;23;20213;-78
2022/04/02 06:10:11;;;;;;;2.15;2.05;;;5.50;99.90;;;;;;6068435;23;20178;-77
2022/04/02 06:12:38;;;;;;;2.10;2.00;;;5.50;99.90;;;;;;6068348;23;20604;-79
2022/04/02 06:15:09;;;;;;;2.10;2.00;;;5.50;99.90;;;;;;6066582;23;20508;-78
2022/04/02 06:17:37;;;;;;;2.25;2.15;;;5.50;99.90;;;;;;6069180;23;20237;-79
2022/04/02 06:20:06;;;;;;;2.38;2.17;;;5.60;99.90;;;;;;6068555;23;20182;-78
2022/04/02 06:22:34;;;;;;;2.55;2.45;;;5.50;99.90;;;;;;6067882;23;20210;-78
2022/04/02 06:25:01;;;;;;;2.38;2.28;;;5.40;99.90;;;;;;6068139;23;20261;-77
2022/04/02 06:27:29;;;;;;;2.28;2.17;;;5.40;99.90;;;;;;6067507;23;20206;-78
2022/04/02 06:29:58;;;;;;;2.00;1.90;;;5.40;99.90;;;;;;6067943;23;20770;-78
2022/04/02 06:32:26;;;;;;;2.50;2.40;;;5.30;99.90;;;;;;6067325;23;20202;-78
2022/04/02 06:34:53;;;;;;;2.05;1.95;;;5.20;99.90;;;;;;6069072;23;20678;-78
2022/04/02 06:37:21;;;;;;;2.08;1.98;;;5.20;99.90;;;;;;6068464;23;20241;-78
2022/04/02 06:39:48;;;;;;;2.03;1.92;;;5.30;99.90;;;;;;6068821;23;20174;-78
2022/04/02 06:42:15;;;;;;;2.10;2.00;;;5.30;99.90;;;;;;6068786;23;20206;-78
2022/04/02 06:44:42;;;;;;;2.08;1.98;;;5.40;99.90;;;;;;6068425;23;20181;-78
2022/04/02 06:47:09;;;;;;;2.33;2.22;;;5.30;99.90;;;;;;6068858;23;20210;-78
2022/04/02 06:49:37;;;;;;;2.25;2.15;;;5.30;99.90;;;;;;6069560;23;20215;-78
2022/04/02 06:52:05;;;;;;;3.13;2.97;;;5.20;99.90;;;;;;6069605;23;20706;-79
2022/04/02 06:54:33;;;;;;;2.53;2.42;;;5.20;99.90;;;;;;6071124;23;20182;-78
2022/04/02 06:57:00;;;;;;;2.78;2.60;;;5.10;99.90;;;;;;6070238;23;20228;-78
2022/04/02 06:59:27;;;;;;;3.67;3.47;;;5.10;99.90;;;;;;6070894;23;20174;-78
2022/04/02 07:01:54;;;;;;;3.03;2.90;;;5.00;99.90;;;;;;6066964;23;20743;-78
2022/04/02 07:04:23;;;;;;;3.78;3.47;;;4.90;99.90;;;;;;6065469;23;20186;-76
2022/04/02 07:06:51;;;;;;;3.55;3.35;;;4.70;99.90;;;;;;6064416;23;20206;-78
2022/04/02 07:09:18;;;;;;;3.20;3.00;;;4.50;99.90;;;;;;6066566;23;20182;-76
2022/04/02 07:11:45;;;;;;;3.97;3.67;;;4.40;99.90;;;;;;6063980;23;20182;-76
2022/04/02 07:14:13;;;;;;;3.65;3.45;;;4.50;99.90;;;;;;6066878;23;20694;-77
2022/04/02 07:16:40;;;;;;;3.00;2.90;;;4.50;99.90;;;;;;6065836;23;20221;-78
2022/04/02 07:19:10;;;;;;;3.33;3.13;;;4.60;99.90;;;;;;6067251;23;20553;-78
2022/04/02 07:21:40;;;;;;;3.08;2.88;;;4.70;99.90;;;;;;6068040;23;20175;-77
2022/04/02 07:24:12;;;;;;;3.58;3.25;;;4.70;99.90;;;;;;6067151;23;20186;-78
2022/04/02 07:26:40;;;;;;;2.72;2.63;;;4.80;99.90;;;;;;6068735;23;20199;-78
2022/04/02 07:29:09;;;;;;;3.38;3.17;;;4.80;99.90;;;;;;6066955;23;20178;-78
2022/04/02 07:31:36;;;;;;;3.22;3.03;;;4.80;99.90;;;;;;6062392;23;20210;-77
2022/04/02 07:34:03;;;;;;;3.28;2.97;;;4.80;99.90;;;;;;6061977;23;20214;-77
2022/04/02 07:36:46;;;;;;;2.55;2.45;;;4.80;99.90;;;;;;6062198;23;20512;-78
2022/04/02 07:39:18;;;;;;;3.00;2.80;;;5.00;99.90;;;;;;6063306;23;20198;-77
2022/04/02 07:41:57;;;;;;;3.38;3.17;;;5.30;99.90;;;;;;6062455;23;20194;-78
2022/04/02 07:44:32;;;;;;;2.65;2.45;;;5.40;99.90;;;;;;6064536;23;20201;-78
2022/04/02 07:47:00;;;;;;;2.80;2.70;;;5.30;99.90;;;;;;6055692;23;20571;-79
2022/04/02 07:49:29;;;;;;;3.05;2.95;;;5.30;99.90;;;;;;6056925;23;20190;-78
2022/04/02 07:51:57;;;;;;;3.30;3.05;;;5.30;99.90;;;;;;6058159;23;20254;-78
2022/04/02 07:54:27;;;;;;;3.35;3.15;;;5.40;99.90;;;;;;6063359;23;20505;-79
2022/04/02 07:56:57;;;;;;;3.22;3.03;;;5.40;99.90;;;;;;6059391;23;20210;-79
2022/04/02 07:59:31;;;;;;;4.03;3.78;;;5.40;99.90;;;;;;6056600;23;20238;-78
2022/04/02 08:01:59;;;;;;;3.38;3.17;;;5.30;99.90;;;;;;6057461;23;20214;-78
2022/04/02 08:04:27;;;;;;;3.58;3.38;;;5.30;99.90;;;;;;6056448;23;20542;-76
2022/04/02 08:06:55;;;;;;;3.28;3.00;;;5.30;99.90;;;;;;6052824;23;20599;-78
2022/04/02 08:09:22;;;;;;;3.00;2.80;;;5.40;99.90;;;;;;6056474;23;20237;-76
2022/04/02 08:11:52;;;;;;;3.25;3.05;;;5.50;99.90;;;;;;6053248;23;20627;-78
2022/04/02 08:14:21;;;;;;;3.55;3.35;;;5.50;99.90;;;;;;6054058;23;20233;-78
2022/04/02 08:16:50;;;;;;;3.13;2.90;;;5.40;99.90;;;;;;6053005;23;20199;-78
2022/04/02 08:19:22;;;;;;;3.25;3.13;;;5.30;99.90;;;;;;6053870;23;20210;-74
2022/04/02 08:21:49;;;;;;;3.20;3.10;;;5.20;99.90;;;;;;6054138;23;20640;-76
2022/04/02 08:24:16;;;;;;;2.95;2.85;;;5.20;99.90;;;;;;6029081;23;20217;-74
2022/04/02 08:26:55;;;;;;;3.33;3.17;;;5.20;99.90;;;;;;6027269;23;20211;-74
2022/04/02 08:29:47;;;;;;;3.15;2.95;;;5.20;99.90;;;;;;6057897;23;20285;-73
2022/04/02 08:32:30;;;;;;;3.10;3.00;;;5.10;99.90;;;;;;6055006;23;20163;-75
2022/04/02 08:35:06;;;;;;;3.30;3.10;;;5.10;99.90;;;;;;6054810;23;20163;-73
2022/04/02 08:37:59;;;;;;;3.80;3.60;;;5.10;99.90;;;;;;6054974;23;20445;-74
2022/04/02 08:40:47;;;;;;;3.25;3.13;;;5.30;99.90;;;;;;6055688;23;20177;-74
2022/04/02 08:44:14;;;;;;;3.63;3.38;;;5.40;99.90;;;;;;6054686;23;20865;-76
2022/04/02 08:47:12;;;;;;;3.78;3.47;;;5.50;99.90;;;;;;5966917;24;20208;-75
2022/04/02 08:49:42;;;;;;;3.90;3.60;;;5.60;99.90;;;;;;6052315;23;20558;-74
2022/04/02 08:52:22;;;;;;;3.70;3.50;;;5.60;99.90;;;;;;6055968;23;20213;-74
2022/04/02 08:55:13;;;;;;;2.85;2.75;;;5.60;99.90;;;;;;6054335;23;20626;-73
2022/04/02 08:58:03;;;;;;;3.85;3.58;;;5.50;99.90;;;;;;6054730;23;20202;-75
2022/04/02 09:00:39;;;;;;;2.83;2.72;;;5.50;99.90;;;;;;6054532;23;20206;-74
2022/04/02 09:03:39;;;;;;;3.67;3.47;;;5.60;99.90;;;;;;6055316;23;20209;-75
2022/04/02 09:06:37;;;;;;;3.00;2.80;;;5.60;99.90;;;;;;6049535;23;20182;-74
2022/04/02 09:09:07;;;;;;;3.38;3.17;;;5.80;99.90;;;;;;6055453;23;20217;-74
2022/04/02 09:11:59;;;;;;;3.13;2.92;;;5.80;99.90;;;;;;6054814;23;20245;-73
2022/04/02 09:14:48;;;;;;;2.72;2.63;;;5.90;99.90;;;;;;6054201;23;20390;-73
2022/04/02 09:17:36;;;;;;;3.03;2.92;;;5.90;99.90;;;;;;6054836;23;20159;-75
2022/04/02 09:20:45;;;;;;;3.03;2.90;;;5.80;99.90;;;;;;6054547;23;20257;-74
2022/04/02 09:23:16;;;;;;;3.10;3.00;;;5.80;99.90;;;;;;6027653;23;20229;-74
2022/04/02 09:26:10;;;;;;;2.88;2.78;;;5.60;99.90;;;;;;6054598;23;20218;-74
2022/04/02 09:28:43;;;;;;;3.60;3.40;;;5.40;99.90;;;;;;6051982;23;20210;-75
2022/04/02 09:31:50;;;;;;;3.25;3.05;;;5.20;99.90;;;;;;6054651;23;20439;-75
2022/04/02 09:34:58;;;;;;;3.50;3.30;;;5.10;99.90;;;;;;6053870;23;20214;-74
2022/04/02 09:37:47;;;;;;;3.35;3.15;;;5.00;99.90;;;;;;6054914;23;20229;-75
2022/04/02 09:40:19;;;;;;;3.38;3.17;;;5.00;99.90;;;;;;6054536;23;20197;-75
2022/04/02 09:42:50;;;;;;;3.13;2.95;;;5.10;99.90;;;;;;6054855;23;21057;-75
2022/04/02 09:45:18;;;;;;;2.50;2.40;;;5.10;99.90;;;;;;6054242;23;20702;-74
2022/04/02 09:48:08;;;;;;;2.72;2.63;;;5.30;99.90;;;;;;6054375;23;20209;-73
2022/04/02 09:50:36;;;;;;;3.38;3.28;;;5.40;99.90;;;;;;6054642;23;20237;-74
2022/04/02 09:53:24;;;;;;;3.50;3.30;;;5.50;99.90;;;;;;6055733;23;20264;-75
2022/04/02 09:56:09;;;;;;;2.88;2.78;;;5.50;99.90;;;;;;6053987;23;20288;-74
2022/04/02 09:59:02;;;;;;;3.50;3.30;;;5.30;99.90;;;;;;6055835;23;20221;-74
2022/04/02 10:01:31;;;;;;;3.47;3.30;;;5.20;99.90;;;;;;6054602;23;20206;-75
2022/04/02 10:04:05;;;;;;;3.05;2.85;;;5.10;99.90;;;;;;6053324;23;20205;-73
2022/04/02 10:06:36;;;;;;;3.60;3.40;;;5.00;99.90;;;;;;6054283;23;21033;-75
2022/04/02 10:09:09;;;;;;;3.65;3.38;;;4.90;99.90;;;;;;6053647;23;20206;-74
2022/04/02 10:11:43;;;;;;;3.30;3.10;;;4.80;99.90;;;;;;6054443;23;20801;-74
2022/04/02 10:14:11;;;;;;;3.70;3.50;;;4.70;99.90;;;;;;6054232;23;20174;-75
2022/04/02 10:16:41;;;;;;;3.22;3.03;;;4.70;99.90;;;;;;6053589;23;20542;-75
2022/04/02 10:19:10;;;;;;;3.35;3.15;;;4.80;99.90;;;;;;6053700;23;20202;-74
2022/04/02 10:21:39;;;;;;;3.00;2.90;;;4.90;99.90;;;;;;6055794;23;20230;-75
2022/04/02 10:24:19;;;;;;;2.80;2.70;;;5.00;99.90;;;;;;6054175;23;20274;-75
2022/04/02 10:26:51;;;;;;;2.97;2.83;;;5.00;99.90;;;;;;6054264;23;20517;-75
2022/04/02 10:29:49;;;;;;;3.45;3.25;;;5.10;99.90;;;;;;6055004;23;20210;-75
2022/04/02 10:32:33;;;;;;;3.33;3.13;;;5.10;99.90;;;;;;6003003;23;20614;-75
2022/04/02 10:35:05;;;;;;;3.03;2.92;;;5.10;99.90;;;;;;6058162;23;20249;-74
2022/04/02 10:37:39;;;;;;;3.05;2.95;;;4.90;99.90;;;;;;6055442;23;20239;-74
2022/04/02 10:40:08;;;;;;;3.55;3.35;;;4.80;99.90;;;;;;6056176;23;20198;-76
2022/04/02 10:42:39;;;;;;;3.40;3.20;;;4.80;99.90;;;;;;6056392;23;20181;-76
2022/04/02 10:45:10;;;;;;;3.47;3.28;;;4.90;99.90;;;;;;6057080;23;20162;-75
2022/04/02 10:47:43;;;;;;;3.25;3.15;;;4.80;99.90;;;;;;6058842;23;20428;-74
2022/04/02 10:50:11;;;;;;;3.20;3.00;;;4.80;99.90;;;;;;6056241;23;20171;-76
2022/04/02 10:52:39;;;;;;;3.47;3.28;;;4.70;99.90;;;;;;6056882;23;20481;-74
2022/04/02 10:55:07;;;;;;;3.75;2.97;;;4.70;99.90;;;;;;6056744;23;20508;-75
2022/04/02 10:57:35;;;;;;;5.28;4.78;;;4.70;99.90;;;;;;6060236;23;20786;-76
2022/04/02 11:00:07;;;;;;;4.15;3.88;;;4.60;99.90;;;;;;6058136;23;20198;-77
2022/04/02 11:02:45;;;;;;;3.88;3.67;;;4.50;99.90;;;;;;6057711;23;20162;-76
2022/04/02 11:05:14;;;;;;;6.47;5.85;;;4.50;99.90;;;;;;6057774;23;20166;-76
2022/04/02 11:07:43;;;;;;;4.53;4.07;;;4.50;99.90;;;;;;6054987;23;20201;-73
2022/04/02 11:10:14;;;;;;;4.45;4.15;;;4.50;99.90;;;;;;6053789;23;20175;-74
2022/04/02 11:12:44;;;;;;;3.65;3.35;;;4.60;99.90;;;;;;6051143;23;20151;-74
2022/04/02 11:15:14;;;;;;;4.45;4.15;;;4.60;99.90;;;;;;6052090;23;20743;-75
2022/04/02 11:17:42;;;;;;;3.72;3.53;;;4.60;99.90;;;;;;6051498;23;20282;-76
2022/04/02 11:20:12;;;;;;;4.07;3.88;;;4.60;99.90;;;;;;6051828;23;20189;-74
2022/04/02 11:22:50;;;;;;;4.18;3.97;;;4.70;99.90;;;;;;6051635;23;20178;-75
2022/04/02 11:25:24;;;;;;;3.97;3.67;;;4.70;99.90;;;;;;6051221;23;20169;-75
2022/04/02 11:27:54;;;;;;;3.78;3.55;;;4.70;99.90;;;;;;6050887;23;20477;-73
2022/04/02 11:30:22;;;;;;;3.75;3.55;;;4.70;99.90;;;;;;6050765;23;20163;-73
2022/04/02 11:32:51;;;;;;;3.60;3.40;;;4.70;99.90;;;;;;6050649;23;20185;-74
2022/04/02 11:35:23;;;;;;;3.60;3.40;;;4.70;99.90;;;;;;6050319;23;20186;-75
2022/04/02 11:38:02;;;;;;;3.10;2.90;;;4.70;99.90;;;;;;6053026;23;20174;-75
2022/04/02 11:40:31;;;;;;;3.22;3.03;;;4.60;99.90;;;;;;6051230;23;20201;-76
2022/04/02 11:43:02;;;;;;;3.35;3.25;;;4.70;99.90;;;;;;6052879;23;20753;-75
2022/04/02 11:45:30;;;;;;;3.13;2.85;;;4.80;99.90;;;;;;6050429;23;20226;-74
2022/04/02 11:48:08;;;;;;;3.50;3.30;;;4.80;99.90;;;;;;6052359;23;20193;-74
2022/04/02 11:50:39;;;;;;;2.83;2.63;;;4.70;99.90;;;;;;6053229;23;20237;-73
2022/04/02 11:53:07;;;;;;;3.75;3.50;;;4.70;99.90;;;;;;6053340;23;20214;-75
2022/04/02 11:55:36;;;;;;;3.75;3.55;;;4.70;99.90;;;;;;6056122;23;20204;-78
2022/04/02 11:58:07;;;;;;;3.28;3.08;;;4.70;99.90;;;;;;6055750;23;20919;-74
2022/04/02 12:00:36;;;;;;;3.08;2.88;;;4.80;99.90;;;;;;6054684;23;20260;-76
2022/04/02 12:03:05;;;;;;;3.00;2.90;;;4.70;99.90;;;;;;6054912;23;20408;-74
2022/04/02 12:05:37;;;;;;;3.30;3.10;;;4.60;99.90;;;;;;6055172;23;20611;-72
2022/04/02 12:08:07;;;;;;;3.28;3.08;;;4.50;99.90;;;;;;6055680;23;20484;-77
2022/04/02 12:10:43;;;;;;;3.90;3.70;;;4.50;99.90;;;;;;6055043;23;20243;-75
2022/04/02 12:13:13;;;;;;;3.63;3.33;;;4.50;99.90;;;;;;6056817;23;20162;-73
2022/04/02 12:15:41;;;;;;;3.13;2.92;;;4.50;99.90;;;;;;6056338;23;20213;-77
2022/04/02 12:18:09;;;;;;;2.92;2.83;;;4.50;99.90;;;;;;6057119;23;20210;-74
2022/04/02 12:20:38;;;;;;;2.83;2.63;;;4.50;99.90;;;;;;6057418;23;20218;-75
2022/04/02 12:23:12;;;;;;;4.47;3.17;;;4.50;99.90;;;;;;6053950;23;20523;-75
2022/04/02 12:25:41;;;;;;;3.60;3.40;;;4.50;99.90;;;;;;6056275;23;20738;-77
2022/04/02 12:28:16;;;;;;;2.75;2.55;;;4.70;99.90;;;;;;6055877;23;20202;-77
2022/04/02 12:30:46;;;;;;;3.13;2.92;;;4.80;99.90;;;;;;6056250;23;20202;-75
2022/04/02 12:33:15;;;;;;;3.22;3.03;;;4.90;99.90;;;;;;6057332;23;20155;-75
2022/04/02 12:35:48;;;;;;;3.08;2.92;;;5.00;99.90;;;;;;6057233;23;20214;-75
2022/04/02 12:38:34;;;;;;;3.42;3.22;;;5.00;99.90;;;;;;6057349;23;20226;-77
2022/04/02 12:41:02;;;;;;;2.80;2.60;;;5.00;99.90;;;;;;6056893;23;20163;-75
2022/04/02 12:43:33;;;;;;;3.45;3.25;;;5.00;99.90;;;;;;6057512;23;20206;-76
2022/04/02 12:46:03;;;;;;;3.63;3.38;;;4.90;99.90;;;;;;6057174;23;20669;-76
2022/04/02 12:48:43;;;;;;;3.63;3.42;;;5.00;99.90;;;;;;6058887;23;20217;-75
2022/04/02 12:51:15;;;;;;;3.00;2.80;;;4.90;99.90;;;;;;6056893;23;20585;-76
2022/04/02 12:53:44;;;;;;;3.25;2.78;;;4.90;99.90;;;;;;6055774;23;20902;-76
2022/04/02 12:56:17;;;;;;;2.65;2.50;;;4.80;99.90;;;;;;6053130;23;20564;-78
2022/04/02 12:58:47;;;;;;;3.47;3.28;;;4.70;99.90;;;;;;6056698;23;20194;-74
2022/04/02 13:01:16;;;;;;;3.50;3.20;;;4.60;99.90;;;;;;6056580;23;20166;-76
2022/04/02 13:03:46;;;;;;;3.75;3.45;;;4.60;99.90;;;;;;6054928;23;20197;-75
2022/04/02 13:06:22;;;;;;;4.28;3.45;;;4.50;99.90;;;;;;6054962;23;20242;-75
2022/04/02 13:08:56;;;;;;;3.28;3.03;;;4.50;99.90;;;;;;6054599;23;20715;-78
2022/04/02 13:11:46;;;;;;;3.92;2.95;;;4.50;99.90;;;;;;6056972;23;20169;-78
2022/04/02 13:14:17;;;;;;;3.53;3.25;;;4.50;99.90;;;;;;6054081;23;20788;-75
2022/04/02 13:16:45;;;;;;;3.40;3.10;;;4.50;99.90;;;;;;6055536;23;20162;-77
2022/04/02 13:22:05;;;;;;;4.35;3.50;;;4.60;99.90;;;;;;6054116;23;20614;-79
2022/04/02 13:24:34;;;;;;;3.35;3.15;;;4.70;99.90;;;;;;6055213;23;20800;-79